Time;durP1;ratioP1;P1;durP2;ratioP2;P2;SDS_P1;SDS_P2;PMS_P1;PMS_P2;Temp;Humidity;BMP_temperature;BMP_pressure;BME280_temperature;BME280_humidity;BME280_pressure;Samples;Min_cycle;Max_cycle;Signal;HPM_P1;HPM_P2
2022/05/19 00:01:13;;;;;;;;;;;;;;;;;;5037891;28;19913;-81
2022/05/19 00:03:39;;;;;;;;;;;;;;;;;;5055573;28;19912;-80
2022/05/19 00:06:05;;;;;;;;;;;;;;;;;;5020969;28;19913;-80
2022/05/19 00:08:30;;;;;;;;;;;;;;;;;;5037499;28;19912;-81
2022/05/19 00:10:57;;;;;;;;;;;;;;;;;;5055153;28;19936;-81
2022/05/19 00:13:23;;;;;;;;;;;;;;;;;;5055431;28;20022;-81
2022/05/19 00:15:48;;;;;;;;;;;;;;;;;;5037608;28;20369;-81
2022/05/19 00:18:14;;;;;;;;;;;;;;;;;;5037663;28;19919;-81
2022/05/19 00:20:39;;;;;;;;;;;;;;;;;;5054518;28;20285;-81
2022/05/19 00:23:04;;;;;;;;;;;;;;;;;;5054955;28;20342;-81
2022/05/19 00:25:30;;;;;;;;;;;;;;;;;;5054948;28;19912;-82
2022/05/19 00:27:55;;;;;;;;;;;;;;;;;;5037196;28;19920;-82
2022/05/19 00:30:21;;;;;;;;;;;;;;;;;;5055110;28;19917;-81
2022/05/19 00:32:46;;;;;;;;;;;;;;;;;;5055140;28;19913;-80
2022/05/19 00:35:11;;;;;;;;;;;;;;;;;;5037337;28;20290;-81
2022/05/19 00:37:37;;;;;;;;;;;;;;;;;;5054649;28;19912;-81
2022/05/19 00:40:02;;;;;;;;;;;;;;;;;;5054720;28;19912;-81
2022/05/19 00:42:46;;;;;;;;;;;;;;;;;;5036770;28;19923;-82
2022/05/19 00:45:12;;;;;;;;;;;;;;;;;;5037120;28;19916;-81
2022/05/19 00:47:49;;;;;;;;;;;;;;;;;;5036856;28;19953;-81
2022/05/19 00:50:25;;;;;;;;;;;;;;;;;;5036790;28;20258;-82
2022/05/19 00:52:51;;;;;;;;;;;;;;;;;;5037002;28;19909;-80
2022/05/19 00:55:18;;;;;;;;;;;;;;;;;;5054454;28;20327;-80
2022/05/19 00:57:45;;;;;;;;;;;;;;;;;;5037107;28;20235;-81
2022/05/19 01:00:15;;;;;;;;;;;;;;;;;;5037050;28;19919;-81
2022/05/19 01:02:41;;;;;;;;;;;;;;;;;;5036879;28;19936;-81
2022/05/19 01:05:09;;;;;;;;;;;;;;;;;;5036768;28;19914;-81
2022/05/19 01:07:39;;;;;;;;;;;;;;;;;;5036774;28;19955;-80
2022/05/19 01:10:05;;;;;;;;;;;;;;;;;;5036793;28;19916;-82
2022/05/19 01:12:30;;;;;;;;;;;;;;;;;;5036541;28;19912;-81
2022/05/19 01:14:56;;;;;;;;;;;;;;;;;;5054654;28;19920;-80
2022/05/19 01:17:21;;;;;;;;;;;;;;;;;;5036767;28;19979;-80
2022/05/19 01:19:47;;;;;;;;;;;;;;;;;;5036331;28;19919;-82
2022/05/19 01:22:26;;;;;;;;;;;;;;;;;;5036670;28;19935;-82
2022/05/19 01:24:58;;;;;;;;;;;;;;;;;;5036740;28;20377;-82
2022/05/19 01:27:24;;;;;;;;;;;;;;;;;;5036903;28;19958;-80
2022/05/19 01:29:49;;;;;;;;;;;;;;;;;;5036346;28;19913;-80
2022/05/19 01:32:24;;;;;;;;;;;;;;;;;;5055129;28;19909;-81
2022/05/19 01:34:50;;;;;;;;;;;;;;;;;;5040144;28;19913;-83
2022/05/19 01:37:15;;;;;;;;;;;;;;;;;;5040359;28;19916;-82
2022/05/19 01:39:40;;;;;;;;;;;;;;;;;;5040441;28;19913;-79
2022/05/19 01:42:09;;;;;;;;;;;;;;;;;;5040215;28;19913;-80
2022/05/19 01:44:34;;;;;;;;;;;;;;;;;;5058297;28;19913;-80
2022/05/19 01:47:15;;;;;;;;;;;;;;;;;;5040228;28;19920;-80
2022/05/19 01:50:04;;;;;;;;;;;;;;;;;;5039775;28;19952;-80
2022/05/19 01:52:32;;;;;;;;;;;;;;;;;;5046223;28;20249;-80
2022/05/19 01:55:16;;;;;;;;;;;;;;;;;;5057520;28;19966;-80
2022/05/19 01:58:02;;;;;;;;;;;;;;;;;;5057724;28;19920;-79
2022/05/19 02:00:28;;;;;;;;;;;;;;;;;;5040204;28;19908;-80
2022/05/19 02:02:58;;;;;;;;;;;;;;;;;;5039744;28;19913;-80
2022/05/19 02:05:34;;;;;;;;;;;;;;;;;;5057537;28;19912;-80
2022/05/19 02:08:00;;;;;;;;;;;;;;;;;;5039723;28;19917;-80
2022/05/19 02:10:31;;;;;;;;;;;;;;;;;;5039669;28;19913;-80
2022/05/19 02:12:58;;;;;;;;;;;;;;;;;;5039602;28;20003;-80
2022/05/19 02:15:24;;;;;;;;;;;;;;;;;;5039809;28;19947;-80
2022/05/19 02:17:49;;;;;;;;;;;;;;;;;;5057644;28;20007;-79
2022/05/19 02:20:15;;;;;;;;;;;;;;;;;;5040209;28;19948;-80
2022/05/19 02:22:42;;;;;;;;;;;;;;;;;;5039923;28;19928;-79
2022/05/19 02:25:27;;;;;;;;;;;;;;;;;;5057241;28;19920;-79
2022/05/19 02:28:07;;;;;;;;;;;;;;;;;;5057365;28;19912;-80
2022/05/19 02:30:33;;;;;;;;;;;;;;;;;;5039599;28;19952;-79
2022/05/19 02:32:58;;;;;;;;;;;;;;;;;;5039049;28;19912;-79
2022/05/19 02:35:23;;;;;;;;;;;;;;;;;;5039244;28;19952;-80
2022/05/19 02:37:49;;;;;;;;;;;;;;;;;;5057461;28;19913;-79
2022/05/19 02:40:15;;;;;;;;;;;;;;;;;;5039513;28;19919;-79
2022/05/19 02:42:40;;;;;;;;;;;;;;;;;;5038776;28;19912;-80
2022/05/19 02:45:06;;;;;;;;;;;;;;;;;;5039245;28;20250;-80
2022/05/19 02:47:31;;;;;;;;;;;;;;;;;;5056670;28;19913;-80
2022/05/19 02:49:57;;;;;;;;;;;;;;;;;;5038903;28;19912;-79
2022/05/19 02:52:23;;;;;;;;;;;;;;;;;;5038920;28;19912;-80
2022/05/19 02:54:48;;;;;;;;;;;;;;;;;;5056536;28;20590;-80
2022/05/19 02:57:13;;;;;;;;;;;;;;;;;;5038909;28;20404;-81
2022/05/19 02:59:39;;;;;;;;;;;;;;;;;;5039105;28;20269;-80
2022/05/19 03:02:04;;;;;;;;;;;;;;;;;;5056564;28;19919;-80
2022/05/19 03:04:29;;;;;;;;;;;;;;;;;;5038932;28;19963;-81
2022/05/19 03:06:55;;;;;;;;;;;;;;;;;;5056659;28;19909;-79
2022/05/19 03:09:21;;;;;;;;;;;;;;;;;;5056626;28;19913;-79
2022/05/19 03:11:46;;;;;;;;;;;;;;;;;;5038635;28;19920;-79
2022/05/19 03:14:12;;;;;;;;;;;;;;;;;;5056282;28;19908;-79
2022/05/19 03:16:40;;;;;;;;;;;;;;;;;;5056012;28;19913;-81
2022/05/19 03:19:05;;;;;;;;;;;;;;;;;;5038640;28;19959;-79
2022/05/19 03:21:31;;;;;;;;;;;;;;;;;;5056004;28;20407;-80
2022/05/19 03:23:56;;;;;;;;;;;;;;;;;;5056513;28;19966;-80
2022/05/19 03:26:21;;;;;;;;;;;;;;;;;;5021929;28;19948;-79
2022/05/19 03:28:47;;;;;;;;;;;;;;;;;;5055953;28;19913;-81
2022/05/19 03:31:12;;;;;;;;;;;;;;;;;;5055830;28;19948;-80
2022/05/19 03:33:37;;;;;;;;;;;;;;;;;;5038008;28;19974;-81
2022/05/19 03:36:03;;;;;;;;;;;;;;;;;;5055755;28;19947;-80
2022/05/19 03:38:28;;;;;;;;;;;;;;;;;;5056372;28;19909;-79
2022/05/19 03:40:54;;;;;;;;;;;;;;;;;;5055681;28;20277;-80
2022/05/19 03:43:19;;;;;;;;;;;;;;;;;;5038010;28;19956;-80
2022/05/19 03:45:45;;;;;;;;;;;;;;;;;;5055508;28;19950;-79
2022/05/19 03:48:10;;;;;;;;;;;;;;;;;;5038088;28;20341;-80
2022/05/19 03:50:35;;;;;;;;;;;;;;;;;;5038032;28;19912;-80
2022/05/19 03:53:01;;;;;;;;;;;;;;;;;;5055794;28;19908;-80
2022/05/19 03:55:26;;;;;;;;;;;;;;;;;;5036704;28;19916;-80
2022/05/19 03:57:52;;;;;;;;;;;;;;;;;;5038250;28;19913;-80
2022/05/19 04:00:18;;;;;;;;;;;;;;;;;;5037526;28;19912;-80
2022/05/19 04:02:44;;;;;;;;;;;;;;;;;;5037679;28;20355;-80
2022/05/19 04:05:10;;;;;;;;;;;;;;;;;;5055330;28;20230;-80
2022/05/19 04:07:37;;;;;;;;;;;;;;;;;;5037351;28;19913;-80
2022/05/19 04:10:02;;;;;;;;;;;;;;;;;;5055204;28;19944;-80
2022/05/19 04:12:27;;;;;;;;;;;;;;;;;;5037673;28;20278;-80
2022/05/19 04:14:53;;;;;;;;;;;;;;;;;;5054885;28;19967;-79
2022/05/19 04:17:18;;;;;;;;;;;;;;;;;;5037620;28;19916;-80
2022/05/19 04:19:44;;;;;;;;;;;;;;;;;;5037630;28;19946;-80
2022/05/19 04:22:09;;;;;;;;;;;;;;;;;;5037210;28;19913;-80
2022/05/19 04:24:34;;;;;;;;;;;;;;;;;;5055421;28;20066;-81
2022/05/19 04:27:02;;;;;;;;;;;;;;;;;;5037449;28;19912;-81
2022/05/19 04:29:27;;;;;;;;;;;;;;;;;;5054925;28;19951;-80
2022/05/19 04:31:52;;;;;;;;;;;;;;;;;;5055182;28;19998;-80
2022/05/19 04:34:17;;;;;;;;;;;;;;;;;;5055457;28;19920;-80
2022/05/19 04:36:44;;;;;;;;;;;;;;;;;;5055258;28;19940;-80
2022/05/19 04:39:09;;;;;;;;;;;;;;;;;;5054875;28;19920;-76
2022/05/19 04:41:36;;;;;;;;;;;;;;;;;;5038094;28;19913;-76
2022/05/19 04:44:01;;;;;;;;;;;;;;;;;;5056078;28;19917;-75
2022/05/19 04:46:27;;;;;;;;;;;;;;;;;;5055875;28;19921;-75
2022/05/19 04:48:52;;;;;;;;;;;;;;;;;;5055154;28;20367;-75
2022/05/19 04:51:17;;;;;;;;;;;;;;;;;;5054475;28;20007;-75
2022/05/19 04:53:43;;;;;;;;;;;;;;;;;;5036842;28;19912;-74
2022/05/19 04:56:08;;;;;;;;;;;;;;;;;;5054153;28;19938;-76
2022/05/19 04:58:33;;;;;;;;;;;;;;;;;;5054266;28;19920;-76
2022/05/19 05:00:59;;;;;;;;;;;;;;;;;;5054424;28;19920;-74
2022/05/19 05:03:24;;;;;;;;;;;;;;;;;;5054079;28;19913;-74
2022/05/19 05:05:49;;;;;;;;;;;;;;;;;;5054720;28;19913;-74
2022/05/19 05:08:15;;;;;;;;;;;;;;;;;;5040918;28;19912;-73
2022/05/19 05:10:40;;;;;;;;;;;;;;;;;;5040651;28;19969;-73
2022/05/19 05:13:06;;;;;;;;;;;;;;;;;;5041378;28;20246;-73
2022/05/19 05:15:31;;;;;;;;;;;;;;;;;;5058739;28;19913;-73
2022/05/19 05:17:57;;;;;;;;;;;;;;;;;;5040581;28;19916;-73
2022/05/19 05:20:22;;;;;;;;;;;;;;;;;;5058415;28;20029;-74
2022/05/19 05:22:47;;;;;;;;;;;;;;;;;;5041799;28;19913;-74
2022/05/19 05:25:13;;;;;;;;;;;;;;;;;;5059173;28;19956;-74
2022/05/19 05:27:39;;;;;;;;;;;;;;;;;;5057847;28;19948;-73
2022/05/19 05:30:04;;;;;;;;;;;;;;;;;;5062844;28;19924;-73
2022/05/19 05:32:30;;;;;;;;;;;;;;;;;;5077466;28;19920;-71
2022/05/19 05:34:55;;;;;;;;;;;;;;;;;;5057732;28;19917;-74
2022/05/19 05:37:21;;;;;;;;;;;;;;;;;;5040433;28;19916;-72
2022/05/19 05:39:46;;;;;;;;;;;;;;;;;;5057232;28;19971;-72
2022/05/19 05:42:11;;;;;;;;;;;;;;;;;;5076293;28;19919;-73
2022/05/19 05:44:37;;;;;;;;;;;;;;;;;;5076640;28;19916;-73
2022/05/19 05:47:17;;;;;;;;;;;;;;;;;;5131297;27;19915;-74
2022/05/19 05:49:42;;;;;;;;;;;;;;;;;;5147567;27;20337;-74
2022/05/19 05:52:08;;;;;;;;;;;;;;;;;;5130234;28;19923;-74
2022/05/19 05:54:34;;;;;;;;;;;;;;;;;;5130187;28;19916;-74
2022/05/19 05:57:00;;;;;;;;;;;;;;;;;;5132854;27;20016;-75
2022/05/19 05:59:25;;;;;;;;;;;;;;;;;;5132603;27;20309;-74
2022/05/19 06:01:50;;;;;;;;;;;;;;;;;;5132596;28;19916;-74
2022/05/19 06:04:16;;;;;;;;;;;;;;;;;;5133425;27;20311;-74
2022/05/19 06:06:45;;;;;;;;;;;;;;;;;;5132812;27;19915;-73
2022/05/19 06:09:11;;;;;;;;;;;;;;;;;;5131013;27;20342;-74
2022/05/19 06:11:36;;;;;;;;;;;;;;;;;;5114695;28;19970;-74
2022/05/19 06:14:02;;;;;;;;;;;;;;;;;;5131812;28;19915;-73
2022/05/19 06:16:28;;;;;;;;;;;;;;;;;;5132791;27;19968;-75
2022/05/19 06:18:53;;;;;;;;;;;;;;;;;;5132812;27;19977;-74
2022/05/19 06:21:19;;;;;;;;;;;;;;;;;;5133018;28;19919;-74
2022/05/19 06:23:45;;;;;;;;;;;;;;;;;;5135687;28;19916;-76
2022/05/19 06:26:11;;;;;;;;;;;;;;;;;;5132459;27;19972;-72
2022/05/19 06:28:36;;;;;;;;;;;;;;;;;;5131732;28;19922;-73
2022/05/19 06:31:02;;;;;;;;;;;;;;;;;;5134142;28;20378;-74
2022/05/19 06:33:28;;;;;;;;;;;;;;;;;;5134079;28;19922;-74
2022/05/19 06:35:54;;;;;;;;;;;;;;;;;;5129186;28;20400;-74
2022/05/19 06:38:22;;;;;;;;;;;;;;;;;;5131020;28;20329;-73
2022/05/19 06:40:47;;;;;;;;;;;;;;;;;;5132604;28;19916;-72
2022/05/19 06:43:14;;;;;;;;;;;;;;;;;;5113624;28;19944;-74
2022/05/19 06:45:39;;;;;;;;;;;;;;;;;;5132961;27;20229;-76
2022/05/19 06:48:04;;;;;;;;;;;;;;;;;;5130224;28;19927;-74
2022/05/19 06:50:30;;;;;;;;;;;;;;;;;;5131063;28;20392;-75
2022/05/19 06:52:59;;;;;;;;;;;;;;;;;;5130925;28;19915;-74
2022/05/19 06:55:25;;;;;;;;;;;;;;;;;;5129765;28;19915;-75
2022/05/19 06:57:50;;;;;;;;;;;;;;;;;;5121587;28;20007;-73
2022/05/19 07:00:17;;;;;;;;;;;;;;;;;;5117383;28;20320;-74
2022/05/19 07:02:43;;;;;;;;;;;;;;;;;;5117485;28;20031;-73
2022/05/19 07:05:09;;;;;;;;;;;;;;;;;;5116066;28;19932;-75
2022/05/19 07:07:34;;;;;;;;;;;;;;;;;;5117152;27;19916;-75
2022/05/19 07:09:59;;;;;;;;;;;;;;;;;;5117093;28;19923;-74
2022/05/19 07:12:25;;;;;;;;;;;;;;;;;;5117158;28;19923;-73
2022/05/19 07:14:51;;;;;;;;;;;;;;;;;;5116857;28;19920;-73
2022/05/19 07:17:17;;;;;;;;;;;;;;;;;;5117062;28;19916;-74
2022/05/19 07:22:26;;;;;;;;;;;;;;;;;;5116934;28;20344;-75
2022/05/19 07:24:52;;;;;;;;;;;;;;;;;;5117251;28;19916;-75
2022/05/19 07:27:17;;;;;;;;;;;;;;;;;;5117150;28;20074;-74
2022/05/19 07:29:42;;;;;;;;;;;;;;;;;;5116027;28;19916;-74
2022/05/19 07:32:08;;;;;;;;;;;;;;;;;;5116160;28;19916;-75
2022/05/19 07:34:34;;;;;;;;;;;;;;;;;;5114957;28;19964;-74
2022/05/19 07:36:59;;;;;;;;;;;;;;;;;;5114302;28;19951;-75
2022/05/19 07:39:24;;;;;;;;;;;;;;;;;;5115884;28;19920;-75
2022/05/19 07:41:51;;;;;;;;;;;;;;;;;;5097539;28;19923;-75
2022/05/19 07:44:16;;;;;;;;;;;;;;;;;;5097476;28;19916;-73
2022/05/19 07:46:42;;;;;;;;;;;;;;;;;;5116090;28;19920;-73
2022/05/19 07:49:07;;;;;;;;;;;;;;;;;;5115642;28;19965;-74
2022/05/19 07:51:36;;;;;;;;;;;;;;;;;;5116992;28;19951;-73
2022/05/19 07:54:05;;;;;;;;;;;;;;;;;;5116815;28;19947;-75
2022/05/19 07:56:33;;;;;;;;;;;;;;;;;;5116894;27;19916;-73
2022/05/19 07:59:00;;;;;;;;;;;;;;;;;;5116332;28;19915;-76
2022/05/19 08:01:25;;;;;;;;;;;;;;;;;;5115318;28;19923;-74
2022/05/19 08:03:51;;;;;;;;;;;;;;;;;;5115127;28;19916;-76
2022/05/19 08:06:16;;;;;;;;;;;;;;;;;;5116009;28;19923;-72
2022/05/19 08:08:42;;;;;;;;;;;;;;;;;;5115719;28;20010;-74
2022/05/19 08:11:08;;;;;;;;;;;;;;;;;;5116647;28;20341;-74
2022/05/19 08:16:17;;;;;;;;;;;;;;;;;;5116250;28;19923;-75
2022/05/19 08:18:42;;;;;;;;;;;;;;;;;;5098149;28;19915;-74
2022/05/19 08:21:10;;;;;;;;;;;;;;;;;;5097513;28;19969;-75
2022/05/19 08:23:37;;;;;;;;;;;;;;;;;;5115291;28;19923;-74
2022/05/19 08:26:02;;;;;;;;;;;;;;;;;;5116380;27;20015;-74
2022/05/19 08:28:30;;;;;;;;;;;;;;;;;;5116157;28;20384;-76
2022/05/19 08:30:58;;;;;;;;;;;;;;;;;;5116067;28;19922;-74
2022/05/19 08:33:24;;;;;;;;;;;;;;;;;;5114964;28;19923;-76
2022/05/19 08:35:49;;;;;;;;;;;;;;;;;;5114471;28;19947;-75
2022/05/19 08:38:15;;;;;;;;;;;;;;;;;;5115746;28;19974;-75
2022/05/19 08:40:45;;;;;;;;;;;;;;;;;;5114836;28;19926;-74
2022/05/19 08:43:11;;;;;;;;;;;;;;;;;;5114891;28;20323;-76
2022/05/19 08:45:40;;;;;;;;;;;;;;;;;;5114554;28;19927;-75
2022/05/19 08:48:12;;;;;;;;;;;;;;;;;;5115521;28;19926;-76
2022/05/19 08:50:40;;;;;;;;;;;;;;;;;;5114348;28;20260;-76
2022/05/19 08:53:06;;;;;;;;;;;;;;;;;;5114578;28;20310;-77
2022/05/19 08:55:32;;;;;;;;;;;;;;;;;;5115619;28;20333;-76
2022/05/19 08:58:00;;;;;;;;;;;;;;;;;;5114529;28;19923;-74
2022/05/19 09:00:27;;;;;;;;;;;;;;;;;;5115776;28;20004;-74
2022/05/19 09:03:05;;;;;;;;;;;;;;;;;;5114943;28;20260;-75
2022/05/19 09:05:36;;;;;;;;;;;;;;;;;;5097386;28;20325;-76
2022/05/19 09:08:08;;;;;;;;;;;;;;;;;;5115169;28;19916;-76
2022/05/19 09:10:38;;;;;;;;;;;;;;;;;;5097189;28;19923;-76
2022/05/19 09:13:09;;;;;;;;;;;;;;;;;;5097780;28;19915;-75
2022/05/19 09:15:35;;;;;;;;;;;;;;;;;;5115707;28;19922;-75
2022/05/19 09:18:00;;;;;;;;;;;;;;;;;;5113934;28;20305;-75
2022/05/19 09:20:28;;;;;;;;;;;;;;;;;;5114111;28;19922;-77
2022/05/19 09:22:59;;;;;;;;;;;;;;;;;;5114428;28;19915;-74
2022/05/19 09:25:24;;;;;;;;;;;;;;;;;;5115424;28;19920;-73
2022/05/19 09:27:51;;;;;;;;;;;;;;;;;;5097302;28;20319;-73
2022/05/19 09:30:31;;;;;;;;;;;;;;;;;;5115110;28;19912;-74
2022/05/19 09:32:58;;;;;;;;;;;;;;;;;;5097115;28;20006;-74
2022/05/19 09:35:39;;;;;;;;;;;;;;;;;;5114439;28;19999;-75
2022/05/19 09:38:05;;;;;;;;;;;;;;;;;;5113776;28;19916;-75
2022/05/19 09:40:33;;;;;;;;;;;;;;;;;;5115102;28;19912;-73
2022/05/19 09:43:22;;;;;;;;;;;;;;;;;;5114144;28;19955;-77
2022/05/19 09:45:48;;;;;;;;;;;;;;;;;;5109259;28;20395;-74
2022/05/19 09:48:14;;;;;;;;;;;;;;;;;;5114903;28;19922;-75
2022/05/19 09:50:45;;;;;;;;;;;;;;;;;;5114837;28;19912;-74
2022/05/19 09:53:15;;;;;;;;;;;;;;;;;;5115079;28;20006;-75
2022/05/19 09:55:41;;;;;;;;;;;;;;;;;;5115255;28;19973;-74
2022/05/19 09:58:08;;;;;;;;;;;;;;;;;;5115017;28;20448;-75
2022/05/19 10:00:37;;;;;;;;;;;;;;;;;;5113785;28;20404;-74
2022/05/19 10:03:03;;;;;;;;;;;;;;;;;;5113355;28;19912;-75
2022/05/19 10:05:35;;;;;;;;;;;;;;;;;;5113566;28;20317;-76
2022/05/19 10:08:05;;;;;;;;;;;;;;;;;;5115024;28;20326;-75
2022/05/19 10:10:31;;;;;;;;;;;;;;;;;;5114823;28;20006;-75
2022/05/19 10:13:02;;;;;;;;;;;;;;;;;;5114787;28;19947;-75
2022/05/19 10:15:30;;;;;;;;;;;;;;;;;;5114648;28;19916;-75
2022/05/19 10:18:02;;;;;;;;;;;;;;;;;;5113670;28;20268;-75
2022/05/19 10:20:30;;;;;;;;;;;;;;;;;;5114672;28;20234;-76
2022/05/19 10:22:59;;;;;;;;;;;;;;;;;;5096703;28;19923;-74
2022/05/19 10:25:34;;;;;;;;;;;;;;;;;;5114817;28;19919;-75
2022/05/19 10:31:05;;;;;;;;;;;;;;;;;;5114370;28;19966;-74
2022/05/19 10:33:33;;;;;;;;;;;;;;;;;;5117725;28;19922;-74
2022/05/19 10:36:11;;;;;;;;;;;;;;;;;;5118681;28;19916;-74
2022/05/19 10:38:43;;;;;;;;;;;;;;;;;;5118752;28;19922;-75
2022/05/19 10:41:31;;;;;;;;;;;;;;;;;;5118564;28;19922;-75
2022/05/19 10:44:06;;;;;;;;;;;;;;;;;;5117319;28;19923;-75
2022/05/19 10:46:34;;;;;;;;;;;;;;;;;;5117891;28;19927;-75
2022/05/19 10:49:26;;;;;;;;;;;;;;;;;;5116956;28;20333;-74
2022/05/19 10:52:15;;;;;;;;;;;;;;;;;;5102200;28;19915;-75
2022/05/19 10:54:53;;;;;;;;;;;;;;;;;;5117102;28;19955;-76
2022/05/19 10:57:40;;;;;;;;;;;;;;;;;;5117076;28;19916;-77
2022/05/19 11:00:19;;;;;;;;;;;;;;;;;;5116896;28;19926;-76
2022/05/19 11:03:03;;;;;;;;;;;;;;;;;;5118220;28;19954;-75
2022/05/19 11:06:01;;;;;;;;;;;;;;;;;;5118140;28;19920;-75
2022/05/19 11:08:37;;;;;;;;;;;;;;;;;;5094381;28;19915;-74
2022/05/19 11:11:29;;;;;;;;;;;;;;;;;;5117648;28;19916;-72
2022/05/19 11:14:03;;;;;;;;;;;;;;;;;;5115442;28;19955;-74
2022/05/19 11:16:47;;;;;;;;;;;;;;;;;;5117717;28;19964;-76
2022/05/19 11:19:14;;;;;;;;;;;;;;;;;;5118095;27;19978;-75
2022/05/19 11:21:44;;;;;;;;;;;;;;;;;;5118201;28;19915;-73
2022/05/19 11:24:09;;;;;;;;;;;;;;;;;;5117809;28;19920;-75
2022/05/19 11:26:38;;;;;;;;;;;;;;;;;;5117650;28;19916;-75
2022/05/19 11:29:06;;;;;;;;;;;;;;;;;;5116237;28;19919;-76
2022/05/19 11:31:44;;;;;;;;;;;;;;;;;;5117583;28;20389;-75
2022/05/19 11:34:17;;;;;;;;;;;;;;;;;;5117638;28;19923;-76
2022/05/19 11:36:49;;;;;;;;;;;;;;;;;;5116183;28;19947;-76
2022/05/19 11:39:18;;;;;;;;;;;;;;;;;;5116470;28;19919;-75
2022/05/19 11:41:44;;;;;;;;;;;;;;;;;;5116339;28;20268;-75
2022/05/19 11:44:11;;;;;;;;;;;;;;;;;;5115604;28;19915;-75
2022/05/19 11:46:54;;;;;;;;;;;;;;;;;;5116097;28;19968;-76
2022/05/19 11:55:19;;;;;;;;;;;;;;;;;;5115928;28;20015;-75
2022/05/19 11:57:48;;;;;;;;;;;;;;;;;;5116672;28;19915;-76
2022/05/19 12:00:24;;;;;;;;;;;;;;;;;;5117304;28;19943;-76
2022/05/19 12:02:54;;;;;;;;;;;;;;;;;;5115546;28;20337;-74
2022/05/19 12:05:35;;;;;;;;;;;;;;;;;;5116656;28;20352;-75
2022/05/19 12:08:11;;;;;;;;;;;;;;;;;;5117085;28;19974;-75
2022/05/19 12:10:37;;;;;;;;;;;;;;;;;;5116918;28;19990;-75
2022/05/19 12:13:03;;;;;;;;;;;;;;;;;;5115207;28;20329;-75
2022/05/19 12:15:36;;;;;;;;;;;;;;;;;;5116626;28;19916;-74
2022/05/19 12:18:08;;;;;;;;;;;;;;;;;;5115634;28;19955;-74
2022/05/19 12:20:34;;;;;;;;;;;;;;;;;;5116995;28;19916;-74
2022/05/19 12:23:35;;;;;;;;;;;;;;;;;;5116916;28;19916;-74
2022/05/19 12:26:15;;;;;;;;;;;;;;;;;;5073704;28;20277;-75
2022/05/19 12:29:00;;;;;;;;;;;;;;;;;;5109141;28;19916;-74
2022/05/19 12:34:13;;;;;;;;;;;;;;;;;;5115220;28;20065;-74
2022/05/19 12:36:41;;;;;;;;;;;;;;;;;;5115110;28;20363;-75
2022/05/19 12:39:10;;;;;;;;;;;;;;;;;;5116140;28;20360;-76
2022/05/19 12:41:50;;;;;;;;;;;;;;;;;;5114729;28;20341;-76
2022/05/19 12:44:26;;;;;;;;;;;;;;;;;;5116291;28;20027;-76
2022/05/19 12:46:58;;;;;;;;;;;;;;;;;;5114720;28;19927;-75
2022/05/19 12:49:25;;;;;;;;;;;;;;;;;;5115044;28;19947;-77
2022/05/19 12:52:11;;;;;;;;;;;;;;;;;;5114841;28;19923;-77
2022/05/19 12:54:37;;;;;;;;;;;;;;;;;;5115329;28;19988;-76
2022/05/19 12:57:08;;;;;;;;;;;;;;;;;;5114251;28;20394;-76
2022/05/19 12:59:52;;;;;;;;;;;;;;;;;;5116173;28;19922;-76
2022/05/19 13:02:18;;;;;;;;;;;;;;;;;;5116263;28;19919;-76
2022/05/19 13:04:45;;;;;;;;;;;;;;;;;;5116024;28;20412;-74
2022/05/19 13:07:19;;;;;;;;;;;;;;;;;;5114722;28;19916;-76
2022/05/19 13:09:55;;;;;;;;;;;;;;;;;;5116391;28;19923;-76
2022/05/19 13:12:21;;;;;;;;;;;;;;;;;;5114670;28;19923;-74
2022/05/19 13:14:51;;;;;;;;;;;;;;;;;;5114731;28;19916;-75
2022/05/19 13:17:22;;;;;;;;;;;;;;;;;;5114213;28;19916;-75
2022/05/19 13:19:48;;;;;;;;;;;;;;;;;;5114597;28;19923;-74
2022/05/19 13:22:23;;;;;;;;;;;;;;;;;;5097533;28;20245;-75
2022/05/19 13:24:48;;;;;;;;;;;;;;;;;;5097088;28;19920;-75
2022/05/19 13:30:31;;;;;;;;;;;;;;;;;;5097098;28;19923;-74
2022/05/19 13:33:08;;;;;;;;;;;;;;;;;;5097392;28;19916;-75
2022/05/19 13:35:33;;;;;;;;;;;;;;;;;;5113923;28;19923;-75
2022/05/19 13:38:01;;;;;;;;;;;;;;;;;;5114212;28;19916;-75
2022/05/19 13:40:30;;;;;;;;;;;;;;;;;;5097135;28;19994;-76
2022/05/19 13:42:55;;;;;;;;;;;;;;;;;;5115501;28;20018;-77
2022/05/19 13:45:21;;;;;;;;;;;;;;;;;;5115050;28;20032;-76
2022/05/19 13:47:47;;;;;;;;;;;;;;;;;;5114132;28;19916;-76
2022/05/19 13:50:15;;;;;;;;;;;;;;;;;;5115363;28;19923;-74
2022/05/19 13:52:50;;;;;;;;;;;;;;;;;;5114345;28;19922;-74
2022/05/19 13:55:31;;;;;;;;;;;;;;;;;;5096946;28;20006;-75
2022/05/19 13:57:56;;;;;;;;;;;;;;;;;;5113807;28;19916;-75
2022/05/19 14:00:23;;;;;;;;;;;;;;;;;;5113823;28;19922;-75
2022/05/19 14:02:48;;;;;;;;;;;;;;;;;;5113993;28;19955;-75
2022/05/19 14:05:27;;;;;;;;;;;;;;;;;;5113619;28;19923;-75
2022/05/19 14:07:52;;;;;;;;;;;;;;;;;;5115715;28;19915;-75
2022/05/19 14:10:18;;;;;;;;;;;;;;;;;;5119006;28;20347;-74
2022/05/19 14:12:45;;;;;;;;;;;;;;;;;;5117717;28;19916;-74
2022/05/19 14:15:16;;;;;;;;;;;;;;;;;;5117784;28;19916;-74
2022/05/19 14:17:51;;;;;;;;;;;;;;;;;;5117879;28;19963;-75
2022/05/19 14:20:22;;;;;;;;;;;;;;;;;;5117716;28;19923;-74
2022/05/19 14:22:51;;;;;;;;;;;;;;;;;;5117626;28;20032;-75
2022/05/19 14:25:17;;;;;;;;;;;;;;;;;;5117540;28;20333;-75
2022/05/19 14:27:42;;;;;;;;;;;;;;;;;;5100824;28;19923;-75
2022/05/19 14:30:11;;;;;;;;;;;;;;;;;;5117393;28;19947;-75
2022/05/19 14:32:45;;;;;;;;;;;;;;;;;;5117397;28;20253;-75
2022/05/19 14:35:43;;;;;;;;;;;;;;;;;;5117330;28;19922;-74
2022/05/19 14:38:24;;;;;;;;;;;;;;;;;;5094841;28;20229;-74
2022/05/19 14:43:38;;;;;;;;;;;;;;;;;;5117467;28;20356;-74
2022/05/19 14:46:03;;;;;;;;;;;;;;;;;;5116945;28;19920;-75
2022/05/19 14:48:32;;;;;;;;;;;;;;;;;;5118657;28;19922;-75
2022/05/19 14:50:59;;;;;;;;;;;;;;;;;;5116802;28;19919;-75
2022/05/19 14:53:25;;;;;;;;;;;;;;;;;;5100374;28;19916;-74
2022/05/19 14:56:14;;;;;;;;;;;;;;;;;;5118067;28;19912;-75
2022/05/19 14:58:39;;;;;;;;;;;;;;;;;;5117159;28;19916;-74
2022/05/19 15:01:05;;;;;;;;;;;;;;;;;;5117977;28;19920;-74
2022/05/19 15:03:30;;;;;;;;;;;;;;;;;;5116907;28;19922;-75
2022/05/19 15:05:56;;;;;;;;;;;;;;;;;;5117972;27;19916;-74
2022/05/19 15:08:21;;;;;;;;;;;;;;;;;;5117909;28;19919;-76
2022/05/19 15:10:46;;;;;;;;;;;;;;;;;;5116592;28;19916;-76
2022/05/19 15:13:12;;;;;;;;;;;;;;;;;;5116650;28;20391;-75
2022/05/19 15:15:37;;;;;;;;;;;;;;;;;;5118040;28;20337;-75
2022/05/19 15:18:03;;;;;;;;;;;;;;;;;;5118267;28;19915;-75
2022/05/19 15:20:29;;;;;;;;;;;;;;;;;;5116451;28;19959;-75
2022/05/19 15:22:55;;;;;;;;;;;;;;;;;;5117945;28;19916;-75
2022/05/19 15:25:21;;;;;;;;;;;;;;;;;;5116415;28;19923;-75
2022/05/19 15:27:46;;;;;;;;;;;;;;;;;;5115651;28;19984;-75
2022/05/19 15:30:14;;;;;;;;;;;;;;;;;;5116325;28;19920;-75
2022/05/19 15:32:40;;;;;;;;;;;;;;;;;;5117493;28;19922;-75
2022/05/19 15:35:05;;;;;;;;;;;;;;;;;;5117334;28;19919;-74
2022/05/19 15:37:31;;;;;;;;;;;;;;;;;;5117590;28;20343;-75
2022/05/19 15:39:56;;;;;;;;;;;;;;;;;;5117513;28;19920;-76
2022/05/19 15:42:21;;;;;;;;;;;;;;;;;;5117867;28;19916;-75
2022/05/19 15:44:47;;;;;;;;;;;;;;;;;;5117532;28;20230;-74
2022/05/19 15:47:16;;;;;;;;;;;;;;;;;;5116838;28;19974;-74
2022/05/19 15:49:43;;;;;;;;;;;;;;;;;;5114242;28;19923;-75
2022/05/19 15:52:08;;;;;;;;;;;;;;;;;;5114562;28;19912;-75
2022/05/19 15:54:34;;;;;;;;;;;;;;;;;;5116669;28;20404;-75
2022/05/19 15:56:59;;;;;;;;;;;;;;;;;;5116433;28;19916;-74
2022/05/19 15:59:24;;;;;;;;;;;;;;;;;;5098255;28;19915;-75
2022/05/19 16:01:50;;;;;;;;;;;;;;;;;;5116896;28;20356;-75
2022/05/19 16:04:15;;;;;;;;;;;;;;;;;;5115307;28;19919;-80
2022/05/19 16:06:40;;;;;;;;;;;;;;;;;;5115984;28;19915;-82
2022/05/19 16:09:05;;;;;;;;;;;;;;;;;;5117639;28;19923;-82
2022/05/19 16:11:31;;;;;;;;;;;;;;;;;;5116115;28;19928;-83
2022/05/19 16:13:57;;;;;;;;;;;;;;;;;;5116064;28;19916;-83
2022/05/19 16:16:23;;;;;;;;;;;;;;;;;;5117230;28;19999;-84
2022/05/19 16:18:48;;;;;;;;;;;;;;;;;;5116685;28;20245;-83
2022/05/19 16:21:17;;;;;;;;;;;;;;;;;;5117112;28;19916;-82
2022/05/19 16:23:43;;;;;;;;;;;;;;;;;;5115429;28;20026;-82
2022/05/19 16:26:08;;;;;;;;;;;;;;;;;;5116352;28;19916;-81
2022/05/19 16:28:33;;;;;;;;;;;;;;;;;;5116870;28;19923;-83
2022/05/19 16:31:00;;;;;;;;;;;;;;;;;;5116328;28;19911;-82
2022/05/19 16:33:25;;;;;;;;;;;;;;;;;;5116454;28;20333;-82
2022/05/19 16:35:52;;;;;;;;;;;;;;;;;;5115358;28;19976;-81
2022/05/19 16:38:19;;;;;;;;;;;;;;;;;;5098558;28;19970;-81
2022/05/19 16:40:45;;;;;;;;;;;;;;;;;;5115123;28;19916;-83
2022/05/19 16:43:10;;;;;;;;;;;;;;;;;;5116740;28;19912;-83
2022/05/19 16:45:35;;;;;;;;;;;;;;;;;;5116174;28;19923;-82
2022/05/19 16:48:01;;;;;;;;;;;;;;;;;;5115482;28;20280;-82
2022/05/19 16:50:27;;;;;;;;;;;;;;;;;;5115344;28;19938;-82
2022/05/19 16:52:52;;;;;;;;;;;;;;;;;;5117326;28;19920;-82
2022/05/19 16:58:03;;;;;;;;;;;;;;;;;;5115029;28;20037;-83
2022/05/19 17:00:30;;;;;;;;;;;;;;;;;;5116091;28;19964;-82
2022/05/19 17:02:55;;;;;;;;;;;;;;;;;;5114863;28;19923;-82
2022/05/19 17:05:21;;;;;;;;;;;;;;;;;;5114960;28;19915;-82
2022/05/19 17:07:47;;;;;;;;;;;;;;;;;;5115021;28;19939;-81
2022/05/19 17:10:13;;;;;;;;;;;;;;;;;;5115257;28;20353;-82
2022/05/19 17:12:38;;;;;;;;;;;;;;;;;;5115810;28;19916;-82
2022/05/19 17:15:04;;;;;;;;;;;;;;;;;;5114528;28;19916;-82
2022/05/19 17:17:30;;;;;;;;;;;;;;;;;;5115064;28;19915;-83
2022/05/19 17:19:55;;;;;;;;;;;;;;;;;;5114734;28;19916;-82